Enter the Airport ICAO Code

Search by Airport or City

Current Weather

EIDW | Dublin Airport

Dublin, Ireland

Last Update 12 Minutes Ago

Mostly Cloudy Sky

Temperature of 05 ºC

Moderate Winds from SouthWest

Temperature

05 ºC

Dew Point Temperature

03 ºC

Relative Humidity

86.91 %

Wind Direction

SouthWest (230º, Ranging from 190º to 280º)

Wind Velocity

19 km/h (10 kt)

Gusts

None

Visibility

Greater than 10 Kilometers

Sea Level Pressure

1006 hPa (Hectopascals)

Layers of Clouds

5% to 30% of Sky Covered from 457 mts (1500 ft) Above Ground Level.

30% to 60% of Sky Covered from 671 mts (2200 ft) Above Ground Level.

60% to 90% of Sky Covered from 4267 mts (14000 ft) Above Ground Level.

METAR EIDW 022130Z 23010KT 190V280 9999 FEW015 SCT022 BKN140 05/03 Q1006 NOSIG

Weather Forecast

EIDW | Dublin Airport

Dublin, Ireland

Forecast valid for the next 20 Hours

From now on it is expected:

Partly Cloudy Sky

Moderate Winds from West

From now on it is expected 10 hours with intermittent periods of:

Rain

In 6 hours it is expected the begining of 7 hours with intermittent periods of:

Mostly Cloudy Sky

In 12 to 14 hours it is expected the begining of:

Light to Moderate Winds from West

Maximum Temperature

No Data

Minimum Temperature

No Data

TAF EIDW 021700Z 0218/0318 25013KT 9999 FEW015 SCT040 PROB40 TEMPO 0218/0220 24015G25KT -SHRA FEW020CB TEMPO 0220/0308 4000 SHRA BKN014 SCT020CB PROB30 TEMPO 0304/0311 BKN005 BECMG 0310/0312 29009KT